sensor_id;sensor_type;location;lat;lon;timestamp;P1;P2;P0
31330;PMS5003;34067;39.548;-76.088;2023-05-10T00:00:14;5;5;
31330;PMS5003;34067;39.548;-76.088;2023-05-10T00:02:42;3;2;
31330;PMS5003;34067;39.548;-76.088;2023-05-10T00:05:10;4;4;
31330;PMS5003;34067;39.548;-76.088;2023-05-10T00:07:38;4;4;
31330;PMS5003;34067;39.548;-76.088;2023-05-10T00:10:06;4;4;
31330;PMS5003;34067;39.548;-76.088;2023-05-10T00:12:35;3;3;
31330;PMS5003;34067;39.548;-76.088;2023-05-10T00:15:03;4;4;
31330;PMS5003;34067;39.548;-76.088;2023-05-10T00:17:32;5;5;
31330;PMS5003;34067;39.548;-76.088;2023-05-10T00:20:00;3;3;
31330;PMS5003;34067;39.548;-76.088;2023-05-10T00:22:27;5;5;
31330;PMS5003;34067;39.548;-76.088;2023-05-10T00:24:55;6;5;
31330;PMS5003;34067;39.548;-76.088;2023-05-10T00:27:24;5;5;
31330;PMS5003;34067;39.548;-76.088;2023-05-10T00:29:53;4;4;
31330;PMS5003;34067;39.548;-76.088;2023-05-10T00:32:21;6;6;
31330;PMS5003;34067;39.548;-76.088;2023-05-10T00:34:49;6;6;
31330;PMS5003;34067;39.548;-76.088;2023-05-10T00:37:17;5;5;
31330;PMS5003;34067;39.548;-76.088;2023-05-10T00:39:45;6;5;
31330;PMS5003;34067;39.548;-76.088;2023-05-10T00:42:13;6;6;
31330;PMS5003;34067;39.548;-76.088;2023-05-10T00:44:41;6;6;
31330;PMS5003;34067;39.548;-76.088;2023-05-10T00:47:09;9;6;
31330;PMS5003;34067;39.548;-76.088;2023-05-10T00:49:37;8;8;
31330;PMS5003;34067;39.548;-76.088;2023-05-10T00:52:05;9;9;
31330;PMS5003;34067;39.548;-76.088;2023-05-10T00:54:33;7;7;
31330;PMS5003;34067;39.548;-76.088;2023-05-10T00:57:02;9;9;
31330;PMS5003;34067;39.548;-76.088;2023-05-10T00:59:31;7;7;
31330;PMS5003;34067;39.548;-76.088;2023-05-10T01:01:59;7;7;
31330;PMS5003;34067;39.548;-76.088;2023-05-10T01:04:27;8;8;
31330;PMS5003;34067;39.548;-76.088;2023-05-10T01:06:56;9;9;
31330;PMS5003;34067;39.548;-76.088;2023-05-10T01:09:24;10;10;
31330;PMS5003;34067;39.548;-76.088;2023-05-10T01:11:53;10;9;
31330;PMS5003;34067;39.548;-76.088;2023-05-10T01:14:22;10;10;
31330;PMS5003;34067;39.548;-76.088;2023-05-10T01:16:51;8;8;
31330;PMS5003;34067;39.548;-76.088;2023-05-10T01:19:21;6;6;
31330;PMS5003;34067;39.548;-76.088;2023-05-10T01:21:55;8;8;
31330;PMS5003;34067;39.548;-76.088;2023-05-10T01:24:42;9;7;
31330;PMS5003;34067;39.548;-76.088;2023-05-10T01:27:34;9;7;
31330;PMS5003;34067;39.548;-76.088;2023-05-10T01:30:40;8;7;
31330;PMS5003;34067;39.548;-76.088;2023-05-10T01:33:22;7;6;
31330;PMS5003;34067;39.548;-76.088;2023-05-10T01:36:01;7;6;
31330;PMS5003;34067;39.548;-76.088;2023-05-10T01:38:37;7;7;
31330;PMS5003;34067;39.548;-76.088;2023-05-10T01:41:11;7;7;
31330;PMS5003;34067;39.548;-76.088;2023-05-10T01:43:46;7;6;
31330;PMS5003;34067;39.548;-76.088;2023-05-10T01:46:26;9;7;
31330;PMS5003;34067;39.548;-76.088;2023-05-10T01:48:58;7;7;
31330;PMS5003;34067;39.548;-76.088;2023-05-10T01:51:31;7;7;
31330;PMS5003;34067;39.548;-76.088;2023-05-10T01:54:05;6;6;
31330;PMS5003;34067;39.548;-76.088;2023-05-10T01:56:35;9;7;
31330;PMS5003;34067;39.548;-76.088;2023-05-10T01:59:06;6;6;
31330;PMS5003;34067;39.548;-76.088;2023-05-10T02:01:40;7;6;
31330;PMS5003;34067;39.548;-76.088;2023-05-10T02:04:15;8;8;
31330;PMS5003;34067;39.548;-76.088;2023-05-10T02:06:45;7;7;
31330;PMS5003;34067;39.548;-76.088;2023-05-10T02:09:14;7;7;
31330;PMS5003;34067;39.548;-76.088;2023-05-10T02:11:43;9;9;
31330;PMS5003;34067;39.548;-76.088;2023-05-10T02:14:12;8;7;
31330;PMS5003;34067;39.548;-76.088;2023-05-10T02:16:41;8;8;
31330;PMS5003;34067;39.548;-76.088;2023-05-10T02:19:10;6;6;
31330;PMS5003;34067;39.548;-76.088;2023-05-10T02:21:40;9;9;
31330;PMS5003;34067;39.548;-76.088;2023-05-10T02:24:09;17;17;
31330;PMS5003;34067;39.548;-76.088;2023-05-10T02:26:38;16;16;
31330;PMS5003;34067;39.548;-76.088;2023-05-10T02:29:07;28;28;
31330;PMS5003;34067;39.548;-76.088;2023-05-10T02:31:37;104;104;
31330;PMS5003;34067;39.548;-76.088;2023-05-10T02:34:05;83;83;
31330;PMS5003;34067;39.548;-76.088;2023-05-10T02:36:35;8;8;
31330;PMS5003;34067;39.548;-76.088;2023-05-10T02:39:05;8;8;
31330;PMS5003;34067;39.548;-76.088;2023-05-10T02:41:35;6;6;
31330;PMS5003;34067;39.548;-76.088;2023-05-10T02:44:03;10;10;
31330;PMS5003;34067;39.548;-76.088;2023-05-10T02:46:34;13;12;
31330;PMS5003;34067;39.548;-76.088;2023-05-10T02:49:02;13;13;
31330;PMS5003;34067;39.548;-76.088;2023-05-10T02:51:31;11;9;
31330;PMS5003;34067;39.548;-76.088;2023-05-10T02:54:02;9;9;
31330;PMS5003;34067;39.548;-76.088;2023-05-10T02:56:39;10;9;
31330;PMS5003;34067;39.548;-76.088;2023-05-10T02:59:09;54;54;
31330;PMS5003;34067;39.548;-76.088;2023-05-10T03:01:37;24;24;
31330;PMS5003;34067;39.548;-76.088;2023-05-10T03:04:05;43;42;
31330;PMS5003;34067;39.548;-76.088;2023-05-10T03:06:33;66;65;
31330;PMS5003;34067;39.548;-76.088;2023-05-10T03:09:01;20;19;
31330;PMS5003;34067;39.548;-76.088;2023-05-10T03:11:35;36;36;
31330;PMS5003;34067;39.548;-76.088;2023-05-10T03:14:20;8;8;
31330;PMS5003;34067;39.548;-76.088;2023-05-10T03:17:01;9;9;
31330;PMS5003;34067;39.548;-76.088;2023-05-10T03:19:37;8;8;
31330;PMS5003;34067;39.548;-76.088;2023-05-10T03:22:14;10;10;
31330;PMS5003;34067;39.548;-76.088;2023-05-10T03:24:47;9;9;
31330;PMS5003;34067;39.548;-76.088;2023-05-10T03:27:19;8;7;
31330;PMS5003;34067;39.548;-76.088;2023-05-10T03:29:49;10;10;
31330;PMS5003;34067;39.548;-76.088;2023-05-10T03:32:19;10;9;
31330;PMS5003;34067;39.548;-76.088;2023-05-10T03:34:47;9;9;
31330;PMS5003;34067;39.548;-76.088;2023-05-10T03:37:15;10;10;
31330;PMS5003;34067;39.548;-76.088;2023-05-10T03:39:43;10;10;
31330;PMS5003;34067;39.548;-76.088;2023-05-10T03:42:11;12;11;
31330;PMS5003;34067;39.548;-76.088;2023-05-10T03:44:39;6;5;
31330;PMS5003;34067;39.548;-76.088;2023-05-10T03:47:07;8;8;
31330;PMS5003;34067;39.548;-76.088;2023-05-10T03:49:35;8;8;
31330;PMS5003;34067;39.548;-76.088;2023-05-10T03:52:03;8;8;
31330;PMS5003;34067;39.548;-76.088;2023-05-10T03:54:31;10;10;
31330;PMS5003;34067;39.548;-76.088;2023-05-10T03:56:59;9;8;
31330;PMS5003;34067;39.548;-76.088;2023-05-10T03:59:27;11;8;
31330;PMS5003;34067;39.548;-76.088;2023-05-10T04:01:56;10;9;
31330;PMS5003;34067;39.548;-76.088;2023-05-10T04:04:23;9;8;
31330;PMS5003;34067;39.548;-76.088;2023-05-10T04:06:52;9;9;
31330;PMS5003;34067;39.548;-76.088;2023-05-10T04:09:20;8;8;
31330;PMS5003;34067;39.548;-76.088;2023-05-10T04:11:48;11;10;
31330;PMS5003;34067;39.548;-76.088;2023-05-10T04:14:16;7;7;
31330;PMS5003;34067;39.548;-76.088;2023-05-10T04:16:44;10;9;
31330;PMS5003;34067;39.548;-76.088;2023-05-10T04:19:12;9;8;
31330;PMS5003;34067;39.548;-76.088;2023-05-10T04:21:41;10;9;
31330;PMS5003;34067;39.548;-76.088;2023-05-10T04:24:08;8;8;
31330;PMS5003;34067;39.548;-76.088;2023-05-10T04:26:36;12;10;
31330;PMS5003;34067;39.548;-76.088;2023-05-10T04:29:04;11;11;
31330;PMS5003;34067;39.548;-76.088;2023-05-10T04:31:33;9;9;
31330;PMS5003;34067;39.548;-76.088;2023-05-10T04:34:01;10;8;
31330;PMS5003;34067;39.548;-76.088;2023-05-10T04:36:29;9;9;
31330;PMS5003;34067;39.548;-76.088;2023-05-10T04:38:57;8;8;
31330;PMS5003;34067;39.548;-76.088;2023-05-10T04:41:25;7;7;
31330;PMS5003;34067;39.548;-76.088;2023-05-10T04:43:53;8;8;
31330;PMS5003;34067;39.548;-76.088;2023-05-10T04:46:21;8;8;
31330;PMS5003;34067;39.548;-76.088;2023-05-10T04:48:49;7;7;
31330;PMS5003;34067;39.548;-76.088;2023-05-10T04:51:17;10;9;
31330;PMS5003;34067;39.548;-76.088;2023-05-10T04:53:45;9;8;
31330;PMS5003;34067;39.548;-76.088;2023-05-10T04:56:13;6;6;
31330;PMS5003;34067;39.548;-76.088;2023-05-10T04:58:42;10;8;
31330;PMS5003;34067;39.548;-76.088;2023-05-10T05:03:11;8;7;
31330;PMS5003;34067;39.548;-76.088;2023-05-10T05:05:39;9;9;
31330;PMS5003;34067;39.548;-76.088;2023-05-10T05:08:07;9;9;
31330;PMS5003;34067;39.548;-76.088;2023-05-10T05:10:36;9;9;
31330;PMS5003;34067;39.548;-76.088;2023-05-10T05:13:04;9;8;
31330;PMS5003;34067;39.548;-76.088;2023-05-10T05:15:32;9;9;
31330;PMS5003;34067;39.548;-76.088;2023-05-10T05:18:00;11;9;
31330;PMS5003;34067;39.548;-76.088;2023-05-10T05:20:31;9;9;
31330;PMS5003;34067;39.548;-76.088;2023-05-10T05:22:59;14;14;
31330;PMS5003;34067;39.548;-76.088;2023-05-10T05:25:28;12;12;
31330;PMS5003;34067;39.548;-76.088;2023-05-10T05:27:56;11;10;
31330;PMS5003;34067;39.548;-76.088;2023-05-10T05:30:24;12;10;
31330;PMS5003;34067;39.548;-76.088;2023-05-10T05:32:52;12;11;
31330;PMS5003;34067;39.548;-76.088;2023-05-10T05:35:20;14;14;
31330;PMS5003;34067;39.548;-76.088;2023-05-10T05:37:48;12;12;
31330;PMS5003;34067;39.548;-76.088;2023-05-10T05:40:16;12;11;
31330;PMS5003;34067;39.548;-76.088;2023-05-10T05:42:45;10;10;
31330;PMS5003;34067;39.548;-76.088;2023-05-10T05:45:13;14;13;
31330;PMS5003;34067;39.548;-76.088;2023-05-10T05:47:41;12;12;
31330;PMS5003;34067;39.548;-76.088;2023-05-10T05:50:09;10;10;
31330;PMS5003;34067;39.548;-76.088;2023-05-10T05:52:37;13;12;
31330;PMS5003;34067;39.548;-76.088;2023-05-10T05:55:07;11;11;
31330;PMS5003;34067;39.548;-76.088;2023-05-10T05:57:35;14;14;
31330;PMS5003;34067;39.548;-76.088;2023-05-10T06:00:03;18;15;
31330;PMS5003;34067;39.548;-76.088;2023-05-10T06:02:32;19;16;
31330;PMS5003;34067;39.548;-76.088;2023-05-10T06:05:00;17;16;
31330;PMS5003;34067;39.548;-76.088;2023-05-10T06:07:28;17;16;
31330;PMS5003;34067;39.548;-76.088;2023-05-10T06:09:56;16;16;
31330;PMS5003;34067;39.548;-76.088;2023-05-10T06:12:24;16;16;
31330;PMS5003;34067;39.548;-76.088;2023-05-10T06:14:52;14;14;
31330;PMS5003;34067;39.548;-76.088;2023-05-10T06:17:20;14;13;
31330;PMS5003;34067;39.548;-76.088;2023-05-10T06:19:48;18;18;
31330;PMS5003;34067;39.548;-76.088;2023-05-10T06:22:16;12;12;
31330;PMS5003;34067;39.548;-76.088;2023-05-10T06:24:44;12;10;
31330;PMS5003;34067;39.548;-76.088;2023-05-10T06:27:12;16;14;
31330;PMS5003;34067;39.548;-76.088;2023-05-10T06:29:40;17;16;
31330;PMS5003;34067;39.548;-76.088;2023-05-10T06:32:08;13;13;
31330;PMS5003;34067;39.548;-76.088;2023-05-10T06:34:36;15;14;
31330;PMS5003;34067;39.548;-76.088;2023-05-10T06:37:05;16;14;
31330;PMS5003;34067;39.548;-76.088;2023-05-10T06:39:33;15;13;
31330;PMS5003;34067;39.548;-76.088;2023-05-10T06:42:01;17;16;
31330;PMS5003;34067;39.548;-76.088;2023-05-10T06:44:29;16;15;
31330;PMS5003;34067;39.548;-76.088;2023-05-10T06:46:57;18;17;
31330;PMS5003;34067;39.548;-76.088;2023-05-10T06:49:25;15;14;
31330;PMS5003;34067;39.548;-76.088;2023-05-10T06:51:52;18;18;
31330;PMS5003;34067;39.548;-76.088;2023-05-10T06:54:20;16;14;
31330;PMS5003;34067;39.548;-76.088;2023-05-10T06:56:49;14;13;
31330;PMS5003;34067;39.548;-76.088;2023-05-10T06:59:16;14;14;
31330;PMS5003;34067;39.548;-76.088;2023-05-10T07:01:44;19;18;
31330;PMS5003;34067;39.548;-76.088;2023-05-10T07:04:12;19;16;
31330;PMS5003;34067;39.548;-76.088;2023-05-10T07:06:40;14;14;
31330;PMS5003;34067;39.548;-76.088;2023-05-10T07:09:08;15;15;
31330;PMS5003;34067;39.548;-76.088;2023-05-10T07:11:36;19;19;
31330;PMS5003;34067;39.548;-76.088;2023-05-10T07:14:04;16;16;
31330;PMS5003;34067;39.548;-76.088;2023-05-10T07:16:32;25;23;
31330;PMS5003;34067;39.548;-76.088;2023-05-10T07:18:59;15;15;
31330;PMS5003;34067;39.548;-76.088;2023-05-10T07:21:27;18;17;
31330;PMS5003;34067;39.548;-76.088;2023-05-10T07:23:55;23;22;
31330;PMS5003;34067;39.548;-76.088;2023-05-10T07:26:23;18;17;
31330;PMS5003;34067;39.548;-76.088;2023-05-10T07:28:51;19;19;
31330;PMS5003;34067;39.548;-76.088;2023-05-10T07:31:19;16;16;
31330;PMS5003;34067;39.548;-76.088;2023-05-10T07:33:47;21;19;
31330;PMS5003;34067;39.548;-76.088;2023-05-10T07:36:15;20;19;
31330;PMS5003;34067;39.548;-76.088;2023-05-10T07:38:43;21;19;
31330;PMS5003;34067;39.548;-76.088;2023-05-10T07:41:11;23;22;
31330;PMS5003;34067;39.548;-76.088;2023-05-10T07:43:39;19;18;
31330;PMS5003;34067;39.548;-76.088;2023-05-10T07:46:07;23;21;
31330;PMS5003;34067;39.548;-76.088;2023-05-10T07:48:34;28;25;
31330;PMS5003;34067;39.548;-76.088;2023-05-10T07:51:03;19;17;
31330;PMS5003;34067;39.548;-76.088;2023-05-10T07:53:31;14;14;
31330;PMS5003;34067;39.548;-76.088;2023-05-10T07:55:59;17;16;
31330;PMS5003;34067;39.548;-76.088;2023-05-10T07:58:47;25;24;
31330;PMS5003;34067;39.548;-76.088;2023-05-10T08:01:15;16;16;
31330;PMS5003;34067;39.548;-76.088;2023-05-10T08:03:43;16;15;
31330;PMS5003;34067;39.548;-76.088;2023-05-10T08:06:11;11;10;
31330;PMS5003;34067;39.548;-76.088;2023-05-10T08:08:39;11;11;
31330;PMS5003;34067;39.548;-76.088;2023-05-10T08:11:07;14;12;
31330;PMS5003;34067;39.548;-76.088;2023-05-10T08:13:35;12;11;
31330;PMS5003;34067;39.548;-76.088;2023-05-10T08:16:03;10;10;
31330;PMS5003;34067;39.548;-76.088;2023-05-10T08:18:31;11;10;
31330;PMS5003;34067;39.548;-76.088;2023-05-10T08:20:59;12;12;
31330;PMS5003;34067;39.548;-76.088;2023-05-10T08:23:27;12;12;
31330;PMS5003;34067;39.548;-76.088;2023-05-10T08:25:55;14;13;
31330;PMS5003;34067;39.548;-76.088;2023-05-10T08:28:24;11;10;
31330;PMS5003;34067;39.548;-76.088;2023-05-10T08:30:52;11;11;
31330;PMS5003;34067;39.548;-76.088;2023-05-10T08:33:20;10;10;
31330;PMS5003;34067;39.548;-76.088;2023-05-10T08:35:48;11;10;
31330;PMS5003;34067;39.548;-76.088;2023-05-10T08:38:17;12;12;
31330;PMS5003;34067;39.548;-76.088;2023-05-10T08:40:45;9;9;
31330;PMS5003;34067;39.548;-76.088;2023-05-10T08:43:15;10;10;
31330;PMS5003;34067;39.548;-76.088;2023-05-10T08:45:44;11;11;
31330;PMS5003;34067;39.548;-76.088;2023-05-10T08:48:13;13;12;
31330;PMS5003;34067;39.548;-76.088;2023-05-10T08:50:44;13;12;
31330;PMS5003;34067;39.548;-76.088;2023-05-10T08:53:13;9;9;
31330;PMS5003;34067;39.548;-76.088;2023-05-10T08:55:43;5;5;
31330;PMS5003;34067;39.548;-76.088;2023-05-10T08:58:11;9;8;
31330;PMS5003;34067;39.548;-76.088;2023-05-10T09:00:39;8;6;
31330;PMS5003;34067;39.548;-76.088;2023-05-10T09:03:07;7;7;
31330;PMS5003;34067;39.548;-76.088;2023-05-10T09:05:36;7;6;
31330;PMS5003;34067;39.548;-76.088;2023-05-10T09:08:04;7;7;
31330;PMS5003;34067;39.548;-76.088;2023-05-10T09:10:35;8;8;
31330;PMS5003;34067;39.548;-76.088;2023-05-10T09:13:03;8;7;
31330;PMS5003;34067;39.548;-76.088;2023-05-10T09:15:31;8;7;
31330;PMS5003;34067;39.548;-76.088;2023-05-10T09:18:00;8;8;
31330;PMS5003;34067;39.548;-76.088;2023-05-10T09:20:28;11;10;
31330;PMS5003;34067;39.548;-76.088;2023-05-10T09:22:56;10;10;
31330;PMS5003;34067;39.548;-76.088;2023-05-10T09:25:24;13;12;
31330;PMS5003;34067;39.548;-76.088;2023-05-10T09:27:52;11;9;
31330;PMS5003;34067;39.548;-76.088;2023-05-10T09:30:24;11;11;
31330;PMS5003;34067;39.548;-76.088;2023-05-10T09:32:54;11;11;
31330;PMS5003;34067;39.548;-76.088;2023-05-10T09:35:23;9;8;
31330;PMS5003;34067;39.548;-76.088;2023-05-10T09:37:52;9;8;
31330;PMS5003;34067;39.548;-76.088;2023-05-10T09:40:22;10;9;
31330;PMS5003;34067;39.548;-76.088;2023-05-10T09:42:51;8;7;
31330;PMS5003;34067;39.548;-76.088;2023-05-10T09:45:20;8;8;
31330;PMS5003;34067;39.548;-76.088;2023-05-10T09:47:48;6;6;
31330;PMS5003;34067;39.548;-76.088;2023-05-10T09:50:18;10;9;
31330;PMS5003;34067;39.548;-76.088;2023-05-10T09:52:47;7;6;
31330;PMS5003;34067;39.548;-76.088;2023-05-10T09:55:18;7;7;
31330;PMS5003;34067;39.548;-76.088;2023-05-10T09:57:47;8;8;
31330;PMS5003;34067;39.548;-76.088;2023-05-10T10:00:17;8;7;
31330;PMS5003;34067;39.548;-76.088;2023-05-10T10:02:46;7;6;
31330;PMS5003;34067;39.548;-76.088;2023-05-10T10:05:21;7;7;
31330;PMS5003;34067;39.548;-76.088;2023-05-10T10:07:55;10;9;
31330;PMS5003;34067;39.548;-76.088;2023-05-10T10:10:25;10;10;
31330;PMS5003;34067;39.548;-76.088;2023-05-10T10:12:54;11;9;
31330;PMS5003;34067;39.548;-76.088;2023-05-10T10:15:22;9;9;
31330;PMS5003;34067;39.548;-76.088;2023-05-10T10:17:51;9;8;
31330;PMS5003;34067;39.548;-76.088;2023-05-10T10:20:21;9;8;
31330;PMS5003;34067;39.548;-76.088;2023-05-10T10:22:49;10;9;
31330;PMS5003;34067;39.548;-76.088;2023-05-10T10:25:17;9;8;
31330;PMS5003;34067;39.548;-76.088;2023-05-10T10:27:52;9;8;
31330;PMS5003;34067;39.548;-76.088;2023-05-10T10:30:35;8;8;
31330;PMS5003;34067;39.548;-76.088;2023-05-10T10:33:18;9;8;
31330;PMS5003;34067;39.548;-76.088;2023-05-10T10:36:03;10;9;
31330;PMS5003;34067;39.548;-76.088;2023-05-10T10:38:55;10;9;
31330;PMS5003;34067;39.548;-76.088;2023-05-10T10:41:29;12;11;
31330;PMS5003;34067;39.548;-76.088;2023-05-10T10:45:15;12;11;
31330;PMS5003;34067;39.548;-76.088;2023-05-10T10:47:43;12;12;
31330;PMS5003;34067;39.548;-76.088;2023-05-10T10:50:12;10;8;
31330;PMS5003;34067;39.548;-76.088;2023-05-10T10:52:40;9;8;
31330;PMS5003;34067;39.548;-76.088;2023-05-10T10:55:09;8;8;
31330;PMS5003;34067;39.548;-76.088;2023-05-10T10:57:54;13;11;
31330;PMS5003;34067;39.548;-76.088;2023-05-10T11:00:24;9;8;
31330;PMS5003;34067;39.548;-76.088;2023-05-10T11:02:56;12;10;
31330;PMS5003;34067;39.548;-76.088;2023-05-10T11:05:33;8;8;
31330;PMS5003;34067;39.548;-76.088;2023-05-10T11:08:10;11;10;
31330;PMS5003;34067;39.548;-76.088;2023-05-10T11:10:48;9;8;
31330;PMS5003;34067;39.548;-76.088;2023-05-10T11:13:26;10;9;
31330;PMS5003;34067;39.548;-76.088;2023-05-10T11:15:55;8;8;
31330;PMS5003;34067;39.548;-76.088;2023-05-10T11:18:23;11;9;
31330;PMS5003;34067;39.548;-76.088;2023-05-10T11:20:55;11;11;
31330;PMS5003;34067;39.548;-76.088;2023-05-10T11:23:28;8;8;
31330;PMS5003;34067;39.548;-76.088;2023-05-10T11:25:58;8;8;
31330;PMS5003;34067;39.548;-76.088;2023-05-10T11:28:27;8;8;
31330;PMS5003;34067;39.548;-76.088;2023-05-10T11:30:55;9;8;
31330;PMS5003;34067;39.548;-76.088;2023-05-10T11:33:23;9;9;
31330;PMS5003;34067;39.548;-76.088;2023-05-10T11:35:51;11;8;
31330;PMS5003;34067;39.548;-76.088;2023-05-10T11:38:19;7;7;
31330;PMS5003;34067;39.548;-76.088;2023-05-10T11:40:47;7;7;
31330;PMS5003;34067;39.548;-76.088;2023-05-10T11:43:19;8;8;
31330;PMS5003;34067;39.548;-76.088;2023-05-10T11:45:50;7;7;
31330;PMS5003;34067;39.548;-76.088;2023-05-10T11:48:18;8;7;
31330;PMS5003;34067;39.548;-76.088;2023-05-10T11:50:47;7;7;
31330;PMS5003;34067;39.548;-76.088;2023-05-10T11:53:15;9;9;
31330;PMS5003;34067;39.548;-76.088;2023-05-10T11:55:43;8;6;
31330;PMS5003;34067;39.548;-76.088;2023-05-10T11:58:11;6;6;
31330;PMS5003;34067;39.548;-76.088;2023-05-10T12:00:39;6;6;
31330;PMS5003;34067;39.548;-76.088;2023-05-10T12:03:07;6;6;
31330;PMS5003;34067;39.548;-76.088;2023-05-10T12:05:36;7;7;
31330;PMS5003;34067;39.548;-76.088;2023-05-10T12:08:11;9;8;
31330;PMS5003;34067;39.548;-76.088;2023-05-10T12:10:40;5;5;
31330;PMS5003;34067;39.548;-76.088;2023-05-10T12:13:11;6;6;
31330;PMS5003;34067;39.548;-76.088;2023-05-10T12:15:39;6;5;
31330;PMS5003;34067;39.548;-76.088;2023-05-10T12:18:08;6;5;
31330;PMS5003;34067;39.548;-76.088;2023-05-10T12:20:37;7;7;
31330;PMS5003;34067;39.548;-76.088;2023-05-10T12:23:07;9;7;
31330;PMS5003;34067;39.548;-76.088;2023-05-10T12:25:36;9;8;
31330;PMS5003;34067;39.548;-76.088;2023-05-10T12:28:06;8;7;
31330;PMS5003;34067;39.548;-76.088;2023-05-10T12:30:35;7;6;
31330;PMS5003;34067;39.548;-76.088;2023-05-10T12:33:08;7;7;
31330;PMS5003;34067;39.548;-76.088;2023-05-10T12:35:45;6;6;
31330;PMS5003;34067;39.548;-76.088;2023-05-10T12:38:29;6;6;
31330;PMS5003;34067;39.548;-76.088;2023-05-10T12:41:01;8;6;
31330;PMS5003;34067;39.548;-76.088;2023-05-10T12:43:30;6;5;
31330;PMS5003;34067;39.548;-76.088;2023-05-10T12:45:57;6;6;
31330;PMS5003;34067;39.548;-76.088;2023-05-10T12:48:30;7;6;
31330;PMS5003;34067;39.548;-76.088;2023-05-10T12:50:58;6;4;
31330;PMS5003;34067;39.548;-76.088;2023-05-10T12:53:26;7;6;
31330;PMS5003;34067;39.548;-76.088;2023-05-10T12:55:54;8;7;
31330;PMS5003;34067;39.548;-76.088;2023-05-10T12:58:22;7;6;
31330;PMS5003;34067;39.548;-76.088;2023-05-10T13:00:51;6;6;
31330;PMS5003;34067;39.548;-76.088;2023-05-10T13:03:19;6;6;
31330;PMS5003;34067;39.548;-76.088;2023-05-10T13:05:47;7;5;
31330;PMS5003;34067;39.548;-76.088;2023-05-10T13:08:15;6;6;
31330;PMS5003;34067;39.548;-76.088;2023-05-10T13:10:43;6;6;
31330;PMS5003;34067;39.548;-76.088;2023-05-10T13:13:11;6;6;
31330;PMS5003;34067;39.548;-76.088;2023-05-10T13:15:39;4;4;
31330;PMS5003;34067;39.548;-76.088;2023-05-10T13:18:07;6;6;
31330;PMS5003;34067;39.548;-76.088;2023-05-10T13:20:35;7;7;
31330;PMS5003;34067;39.548;-76.088;2023-05-10T13:23:03;8;8;
31330;PMS5003;34067;39.548;-76.088;2023-05-10T13:25:31;7;7;
31330;PMS5003;34067;39.548;-76.088;2023-05-10T13:27:59;6;6;
31330;PMS5003;34067;39.548;-76.088;2023-05-10T13:30:27;6;5;
31330;PMS5003;34067;39.548;-76.088;2023-05-10T13:32:56;5;4;
31330;PMS5003;34067;39.548;-76.088;2023-05-10T13:35:24;7;6;
31330;PMS5003;34067;39.548;-76.088;2023-05-10T13:37:52;6;5;
31330;PMS5003;34067;39.548;-76.088;2023-05-10T13:40:20;7;6;
31330;PMS5003;34067;39.548;-76.088;2023-05-10T13:42:48;7;6;
31330;PMS5003;34067;39.548;-76.088;2023-05-10T13:45:16;7;6;
31330;PMS5003;34067;39.548;-76.088;2023-05-10T13:47:44;7;7;
31330;PMS5003;34067;39.548;-76.088;2023-05-10T13:50:12;6;5;
31330;PMS5003;34067;39.548;-76.088;2023-05-10T13:52:41;5;5;
31330;PMS5003;34067;39.548;-76.088;2023-05-10T13:55:09;9;8;
31330;PMS5003;34067;39.548;-76.088;2023-05-10T13:57:37;10;8;
31330;PMS5003;34067;39.548;-76.088;2023-05-10T14:00:05;18;18;
31330;PMS5003;34067;39.548;-76.088;2023-05-10T14:02:34;10;10;
31330;PMS5003;34067;39.548;-76.088;2023-05-10T14:05:03;9;9;
31330;PMS5003;34067;39.548;-76.088;2023-05-10T14:07:31;6;6;
31330;PMS5003;34067;39.548;-76.088;2023-05-10T14:10:00;9;7;
31330;PMS5003;34067;39.548;-76.088;2023-05-10T14:12:27;6;6;
31330;PMS5003;34067;39.548;-76.088;2023-05-10T14:14:55;8;7;
31330;PMS5003;34067;39.548;-76.088;2023-05-10T14:17:24;7;7;
31330;PMS5003;34067;39.548;-76.088;2023-05-10T14:19:52;7;5;
31330;PMS5003;34067;39.548;-76.088;2023-05-10T14:22:20;8;7;
31330;PMS5003;34067;39.548;-76.088;2023-05-10T14:24:48;8;6;
31330;PMS5003;34067;39.548;-76.088;2023-05-10T14:27:16;7;7;
31330;PMS5003;34067;39.548;-76.088;2023-05-10T14:29:44;6;6;
31330;PMS5003;34067;39.548;-76.088;2023-05-10T14:32:11;6;6;
31330;PMS5003;34067;39.548;-76.088;2023-05-10T14:34:40;8;7;
31330;PMS5003;34067;39.548;-76.088;2023-05-10T14:37:10;8;7;
31330;PMS5003;34067;39.548;-76.088;2023-05-10T14:39:38;6;5;
31330;PMS5003;34067;39.548;-76.088;2023-05-10T14:42:06;9;8;
31330;PMS5003;34067;39.548;-76.088;2023-05-10T14:44:34;8;7;
31330;PMS5003;34067;39.548;-76.088;2023-05-10T14:47:02;7;6;
31330;PMS5003;34067;39.548;-76.088;2023-05-10T14:49:30;8;8;
31330;PMS5003;34067;39.548;-76.088;2023-05-10T14:51:58;8;7;
31330;PMS5003;34067;39.548;-76.088;2023-05-10T14:54:26;8;8;
31330;PMS5003;34067;39.548;-76.088;2023-05-10T14:56:54;11;10;
31330;PMS5003;34067;39.548;-76.088;2023-05-10T14:59:22;8;8;
31330;PMS5003;34067;39.548;-76.088;2023-05-10T15:01:50;7;7;
31330;PMS5003;34067;39.548;-76.088;2023-05-10T15:04:18;8;8;
31330;PMS5003;34067;39.548;-76.088;2023-05-10T15:06:46;9;8;
31330;PMS5003;34067;39.548;-76.088;2023-05-10T15:09:14;11;10;
31330;PMS5003;34067;39.548;-76.088;2023-05-10T15:11:42;8;8;
31330;PMS5003;34067;39.548;-76.088;2023-05-10T15:14:09;9;8;
31330;PMS5003;34067;39.548;-76.088;2023-05-10T15:16:37;10;9;
31330;PMS5003;34067;39.548;-76.088;2023-05-10T15:19:05;9;8;
31330;PMS5003;34067;39.548;-76.088;2023-05-10T15:21:33;9;9;
31330;PMS5003;34067;39.548;-76.088;2023-05-10T15:24:01;7;6;
31330;PMS5003;34067;39.548;-76.088;2023-05-10T15:26:29;7;7;
31330;PMS5003;34067;39.548;-76.088;2023-05-10T15:28:57;6;6;
31330;PMS5003;34067;39.548;-76.088;2023-05-10T15:31:25;9;8;
31330;PMS5003;34067;39.548;-76.088;2023-05-10T15:33:55;15;15;
31330;PMS5003;34067;39.548;-76.088;2023-05-10T15:36:24;13;13;
31330;PMS5003;34067;39.548;-76.088;2023-05-10T15:38:52;16;16;
31330;PMS5003;34067;39.548;-76.088;2023-05-10T15:41:21;9;8;
31330;PMS5003;34067;39.548;-76.088;2023-05-10T15:43:48;12;11;
31330;PMS5003;34067;39.548;-76.088;2023-05-10T15:46:16;9;8;
31330;PMS5003;34067;39.548;-76.088;2023-05-10T15:48:44;9;7;
31330;PMS5003;34067;39.548;-76.088;2023-05-10T15:51:12;9;8;
31330;PMS5003;34067;39.548;-76.088;2023-05-10T15:53:40;7;7;
31330;PMS5003;34067;39.548;-76.088;2023-05-10T15:56:08;9;8;
31330;PMS5003;34067;39.548;-76.088;2023-05-10T15:58:37;9;8;
31330;PMS5003;34067;39.548;-76.088;2023-05-10T16:01:05;8;8;
31330;PMS5003;34067;39.548;-76.088;2023-05-10T16:03:34;9;8;
31330;PMS5003;34067;39.548;-76.088;2023-05-10T16:06:02;9;9;
31330;PMS5003;34067;39.548;-76.088;2023-05-10T16:08:30;10;9;
31330;PMS5003;34067;39.548;-76.088;2023-05-10T16:10:58;9;9;
31330;PMS5003;34067;39.548;-76.088;2023-05-10T16:13:27;9;9;
31330;PMS5003;34067;39.548;-76.088;2023-05-10T16:15:55;7;7;
31330;PMS5003;34067;39.548;-76.088;2023-05-10T16:18:23;10;10;
31330;PMS5003;34067;39.548;-76.088;2023-05-10T16:20:51;7;6;
31330;PMS5003;34067;39.548;-76.088;2023-05-10T16:23:20;10;9;